sensor_id;sensor_type;location;lat;lon;timestamp;pressure;altitude;pressure_sealevel;temperature;humidity
59009;BME280;44794;42.652;23.318;2023-02-01T00:01:37;94615.63;;;0.76;88.02
59009;BME280;44794;42.652;23.318;2023-02-01T00:04:03;94612.28;;;0.74;87.99
59009;BME280;44794;42.652;23.318;2023-02-01T00:06:29;94619.09;;;0.74;87.73
59009;BME280;44794;42.652;23.318;2023-02-01T00:08:55;94613.84;;;0.78;87.35
59009;BME280;44794;42.652;23.318;2023-02-01T00:11:21;94620.94;;;0.71;87.03
59009;BME280;44794;42.652;23.318;2023-02-01T00:13:47;94625.88;;;0.75;87.17
59009;BME280;44794;42.652;23.318;2023-02-01T00:16:15;94620.06;;;0.72;87.22
59009;BME280;44794;42.652;23.318;2023-02-01T00:18:42;94619.06;;;0.75;87.10
59009;BME280;44794;42.652;23.318;2023-02-01T00:21:07;94620.19;;;0.69;86.78
59009;BME280;44794;42.652;23.318;2023-02-01T00:23:33;94622.84;;;0.66;86.87
59009;BME280;44794;42.652;23.318;2023-02-01T00:26:03;94608.28;;;0.68;86.83
59009;BME280;44794;42.652;23.318;2023-02-01T00:28:29;94624.28;;;0.73;86.53
59009;BME280;44794;42.652;23.318;2023-02-01T00:31:02;94615.06;;;0.69;86.08
59009;BME280;44794;42.652;23.318;2023-02-01T00:33:28;94616.06;;;0.65;86.24
59009;BME280;44794;42.652;23.318;2023-02-01T00:35:58;94614.59;;;0.58;85.88
59009;BME280;44794;42.652;23.318;2023-02-01T00:38:25;94617.00;;;0.62;85.82
59009;BME280;44794;42.652;23.318;2023-02-01T00:40:50;94614.59;;;0.58;85.37
59009;BME280;44794;42.652;23.318;2023-02-01T00:43:15;94609.84;;;0.49;85.27
59009;BME280;44794;42.652;23.318;2023-02-01T00:45:41;94606.59;;;0.44;85.22
59009;BME280;44794;42.652;23.318;2023-02-01T00:48:06;94606.59;;;0.44;84.48
59009;BME280;44794;42.652;23.318;2023-02-01T00:50:32;94611.50;;;0.50;84.49
59009;BME280;44794;42.652;23.318;2023-02-01T00:52:57;94610.72;;;0.48;84.24
59009;BME280;44794;42.652;23.318;2023-02-01T00:55:23;94604.03;;;0.45;83.79
59009;BME280;44794;42.652;23.318;2023-02-01T00:57:48;94609.16;;;0.44;83.69
59009;BME280;44794;42.652;23.318;2023-02-01T01:00:14;94608.28;;;0.45;83.59
59009;BME280;44794;42.652;23.318;2023-02-01T01:02:41;94605.06;;;0.40;83.09
59009;BME280;44794;42.652;23.318;2023-02-01T01:05:07;94608.34;;;0.43;83.24
59009;BME280;44794;42.652;23.318;2023-02-01T01:07:32;94608.19;;;0.48;82.57
59009;BME280;44794;42.652;23.318;2023-02-01T01:09:57;94608.84;;;0.53;82.03
59009;BME280;44794;42.652;23.318;2023-02-01T01:12:23;94617.88;;;0.61;82.28
59009;BME280;44794;42.652;23.318;2023-02-01T01:14:48;94607.63;;;0.63;81.98
59009;BME280;44794;42.652;23.318;2023-02-01T01:17:14;94602.31;;;0.69;81.92
59009;BME280;44794;42.652;23.318;2023-02-01T01:19:39;94612.69;;;0.64;81.27
59009;BME280;44794;42.652;23.318;2023-02-01T01:22:05;94608.53;;;0.62;80.45
59009;BME280;44794;42.652;23.318;2023-02-01T01:24:30;94609.41;;;0.61;79.84
59009;BME280;44794;42.652;23.318;2023-02-01T01:26:55;94605.97;;;0.62;80.14
59009;BME280;44794;42.652;23.318;2023-02-01T01:29:21;94600.94;;;0.59;79.91
59009;BME280;44794;42.652;23.318;2023-02-01T01:31:46;94609.28;;;0.64;78.94
59009;BME280;44794;42.652;23.318;2023-02-01T01:34:12;94609.19;;;0.67;78.60
59009;BME280;44794;42.652;23.318;2023-02-01T01:36:37;94616.91;;;0.65;78.06
59009;BME280;44794;42.652;23.318;2023-02-01T01:39:02;94618.03;;;0.57;77.36
59009;BME280;44794;42.652;23.318;2023-02-01T01:41:32;94629.78;;;0.62;77.54
59009;BME280;44794;42.652;23.318;2023-02-01T01:44:05;94628.50;;;0.51;77.38
59009;BME280;44794;42.652;23.318;2023-02-01T01:46:36;94621.63;;;0.53;77.75
59009;BME280;44794;42.652;23.318;2023-02-01T01:49:16;94621.63;;;0.53;77.67
59009;BME280;44794;42.652;23.318;2023-02-01T01:51:55;94628.50;;;0.51;77.79
59009;BME280;44794;42.652;23.318;2023-02-01T01:54:29;94636.38;;;0.45;77.74
59009;BME280;44794;42.652;23.318;2023-02-01T01:57:00;94615.50;;;0.34;77.81
59009;BME280;44794;42.652;23.318;2023-02-01T01:59:27;94619.44;;;0.18;78.52
59009;BME280;44794;42.652;23.318;2023-02-01T02:01:56;94623.09;;;0.11;79.04
59009;BME280;44794;42.652;23.318;2023-02-01T02:04:22;94619.25;;;-0.01;79.47
59009;BME280;44794;42.652;23.318;2023-02-01T02:06:59;94616.16;;;-0.10;79.99
59009;BME280;44794;42.652;23.318;2023-02-01T02:09:26;94617.47;;;-0.23;80.44
59009;BME280;44794;42.652;23.318;2023-02-01T02:11:52;94618.63;;;-0.33;80.97
59009;BME280;44794;42.652;23.318;2023-02-01T02:14:20;94612.06;;;-0.40;81.46
59009;BME280;44794;42.652;23.318;2023-02-01T02:34:01;94599.78;;;-0.55;82.00
59009;BME280;44794;42.652;23.318;2023-02-01T02:39:11;94615.59;;;-0.44;81.51
59009;BME280;44794;42.652;23.318;2023-02-01T02:45:16;94610.38;;;-0.15;79.45
59009;BME280;44794;42.652;23.318;2023-02-01T02:48:22;94600.72;;;-0.07;78.69
59009;BME280;44794;42.652;23.318;2023-02-01T02:51:00;94597.06;;;0.01;78.35
59009;BME280;44794;42.652;23.318;2023-02-01T02:53:57;94595.25;;;0.05;78.11
59009;BME280;44794;42.652;23.318;2023-02-01T02:56:43;94602.03;;;0.04;77.52
59009;BME280;44794;42.652;23.318;2023-02-01T02:59:28;94606.13;;;0.10;77.20
59009;BME280;44794;42.652;23.318;2023-02-01T03:02:13;94604.34;;;0.12;76.78
59009;BME280;44794;42.652;23.318;2023-02-01T03:04:58;94595.75;;;0.14;76.14
59009;BME280;44794;42.652;23.318;2023-02-01T03:10:16;94616.59;;;0.27;75.12
59009;BME280;44794;42.652;23.318;2023-02-01T03:12:43;94619.16;;;0.27;74.80
59009;BME280;44794;42.652;23.318;2023-02-01T03:15:26;94631.84;;;0.28;74.75
59009;BME280;44794;42.652;23.318;2023-02-01T03:17:57;94630.91;;;0.31;74.94
59009;BME280;44794;42.652;23.318;2023-02-01T03:20:26;94630.75;;;0.35;74.68
59009;BME280;44794;42.652;23.318;2023-02-01T03:22:52;94636.00;;;0.31;74.95
59009;BME280;44794;42.652;23.318;2023-02-01T03:25:24;94637.91;;;0.26;75.59
59009;BME280;44794;42.652;23.318;2023-02-01T03:27:59;94632.06;;;0.22;76.04
59009;BME280;44794;42.652;23.318;2023-02-01T03:30:28;94631.28;;;0.20;76.20
59009;BME280;44794;42.652;23.318;2023-02-01T03:32:58;94631.63;;;0.10;76.50
59009;BME280;44794;42.652;23.318;2023-02-01T03:35:35;94634.13;;;0.11;76.56
59009;BME280;44794;42.652;23.318;2023-02-01T03:40:43;94627.38;;;0.10;76.98
59009;BME280;44794;42.652;23.318;2023-02-01T03:43:13;94620.28;;;0.18;77.15
59009;BME280;44794;42.652;23.318;2023-02-01T03:45:42;94619.53;;;0.15;76.94
59009;BME280;44794;42.652;23.318;2023-02-01T03:48:09;94620.25;;;0.20;76.71
59009;BME280;44794;42.652;23.318;2023-02-01T03:50:38;94621.13;;;0.19;76.55
59009;BME280;44794;42.652;23.318;2023-02-01T03:53:08;94619.16;;;0.27;76.48
59009;BME280;44794;42.652;23.318;2023-02-01T03:55:35;94620.91;;;0.25;76.22
59009;BME280;44794;42.652;23.318;2023-02-01T03:58:19;94618.94;;;0.33;76.38
59009;BME280;44794;42.652;23.318;2023-02-01T04:00:50;94622.59;;;0.26;76.22
59009;BME280;44794;42.652;23.318;2023-02-01T04:03:16;94643.09;;;0.23;76.59
59009;BME280;44794;42.652;23.318;2023-02-01T04:05:42;94619.19;;;0.25;76.62
59009;BME280;44794;42.652;23.318;2023-02-01T04:08:07;94635.94;;;0.32;76.88
59009;BME280;44794;42.652;23.318;2023-02-01T04:10:33;94620.25;;;0.43;76.95
59009;BME280;44794;42.652;23.318;2023-02-01T04:12:58;94622.72;;;0.46;76.60
59009;BME280;44794;42.652;23.318;2023-02-01T04:15:24;94621.19;;;0.40;77.04
59009;BME280;44794;42.652;23.318;2023-02-01T04:17:49;94621.94;;;0.44;77.60
59009;BME280;44794;42.652;23.318;2023-02-01T04:20:15;94623.00;;;0.38;77.82
59009;BME280;44794;42.652;23.318;2023-02-01T04:22:40;94628.94;;;0.39;78.12
59009;BME280;44794;42.652;23.318;2023-02-01T04:25:06;94622.63;;;0.49;78.49
59009;BME280;44794;42.652;23.318;2023-02-01T04:27:33;94635.28;;;0.52;78.63
59009;BME280;44794;42.652;23.318;2023-02-01T04:29:58;94637.75;;;0.53;78.63
59009;BME280;44794;42.652;23.318;2023-02-01T04:32:24;94633.59;;;0.51;78.88
59009;BME280;44794;42.652;23.318;2023-02-01T04:34:49;94624.81;;;0.58;79.38
59009;BME280;44794;42.652;23.318;2023-02-01T04:37:15;94623.16;;;0.57;79.93
59009;BME280;44794;42.652;23.318;2023-02-01T04:39:40;94627.53;;;0.53;79.99
59009;BME280;44794;42.652;23.318;2023-02-01T04:42:06;94629.94;;;0.58;80.36
59009;BME280;44794;42.652;23.318;2023-02-01T04:44:31;94624.06;;;0.56;80.44
59009;BME280;44794;42.652;23.318;2023-02-01T04:46:57;94623.78;;;0.63;80.68
59009;BME280;44794;42.652;23.318;2023-02-01T04:49:22;94629.94;;;0.58;80.74
59009;BME280;44794;42.652;23.318;2023-02-01T04:51:48;94628.81;;;0.66;80.86
59009;BME280;44794;42.652;23.318;2023-02-01T04:54:13;94639.75;;;0.70;80.88
59009;BME280;44794;42.652;23.318;2023-02-01T04:56:39;94646.56;;;0.69;80.99
59009;BME280;44794;42.652;23.318;2023-02-01T04:59:05;94653.28;;;0.72;81.37
59009;BME280;44794;42.652;23.318;2023-02-01T05:01:31;94650.72;;;0.72;81.77
59009;BME280;44794;42.652;23.318;2023-02-01T05:03:57;94647.13;;;0.77;81.86
59009;BME280;44794;42.652;23.318;2023-02-01T05:06:23;94657.97;;;0.83;81.88
59009;BME280;44794;42.652;23.318;2023-02-01T05:08:49;94651.19;;;0.82;81.68
59009;BME280;44794;42.652;23.318;2023-02-01T05:11:14;94658.84;;;0.82;81.81
59009;BME280;44794;42.652;23.318;2023-02-01T05:13:59;94667.34;;;0.83;81.50
59009;BME280;44794;42.652;23.318;2023-02-01T05:16:25;94653.59;;;0.87;81.31
59009;BME280;44794;42.652;23.318;2023-02-01T05:18:51;94664.41;;;0.93;81.46
59009;BME280;44794;42.652;23.318;2023-02-01T05:21:17;94672.19;;;0.90;81.57
59009;BME280;44794;42.652;23.318;2023-02-01T05:23:42;94667.75;;;0.95;81.54
59009;BME280;44794;42.652;23.318;2023-02-01T05:26:27;94650.78;;;0.93;81.83
59009;BME280;44794;42.652;23.318;2023-02-01T05:28:52;94658.47;;;0.93;82.09
59009;BME280;44794;42.652;23.318;2023-02-01T05:31:18;94658.31;;;0.97;82.13
59009;BME280;44794;42.652;23.318;2023-02-01T05:33:43;94658.06;;;1.03;81.96
59009;BME280;44794;42.652;23.318;2023-02-01T05:36:08;94670.84;;;1.03;82.00
59009;BME280;44794;42.652;23.318;2023-02-01T05:38:34;94658.72;;;1.08;81.95
59009;BME280;44794;42.652;23.318;2023-02-01T05:41:00;94662.97;;;1.09;81.70
59009;BME280;44794;42.652;23.318;2023-02-01T05:43:25;94655.38;;;1.06;81.40
59009;BME280;44794;42.652;23.318;2023-02-01T05:45:53;94653.72;;;1.05;81.22
59009;BME280;44794;42.652;23.318;2023-02-01T05:48:19;94659.56;;;1.09;81.15
59009;BME280;44794;42.652;23.318;2023-02-01T05:50:44;94658.63;;;1.11;80.66
59009;BME280;44794;42.652;23.318;2023-02-01T05:53:10;94661.72;;;1.19;80.50
59009;BME280;44794;42.652;23.318;2023-02-01T05:55:36;94652.41;;;1.18;79.94
59009;BME280;44794;42.652;23.318;2023-02-01T05:58:03;94661.50;;;1.25;79.61
59009;BME280;44794;42.652;23.318;2023-02-01T06:00:28;94647.53;;;1.34;78.89
59009;BME280;44794;42.652;23.318;2023-02-01T06:02:54;94671.50;;;1.31;78.46
59009;BME280;44794;42.652;23.318;2023-02-01T06:05:20;94668.00;;;1.34;78.28
59009;BME280;44794;42.652;23.318;2023-02-01T06:07:46;94669.75;;;1.32;78.23
59009;BME280;44794;42.652;23.318;2023-02-01T06:10:11;94669.69;;;1.33;78.09
59009;BME280;44794;42.652;23.318;2023-02-01T06:12:37;94670.41;;;1.37;77.70
59009;BME280;44794;42.652;23.318;2023-02-01T06:15:03;94672.94;;;1.38;77.63
59009;BME280;44794;42.652;23.318;2023-02-01T06:17:28;94677.66;;;1.48;77.47
59009;BME280;44794;42.652;23.318;2023-02-01T06:19:54;94668.47;;;1.43;77.61
59009;BME280;44794;42.652;23.318;2023-02-01T06:22:19;94670.97;;;1.45;76.80
59009;BME280;44794;42.652;23.318;2023-02-01T06:24:46;94681.03;;;1.49;76.95
59009;BME280;44794;42.652;23.318;2023-02-01T06:27:12;94688.69;;;1.49;76.01
59009;BME280;44794;42.652;23.318;2023-02-01T06:29:38;94693.75;;;1.50;75.82
59009;BME280;44794;42.652;23.318;2023-02-01T06:32:04;94693.53;;;1.56;75.81
59009;BME280;44794;42.652;23.318;2023-02-01T06:34:29;94691.75;;;1.58;75.33
59009;BME280;44794;42.652;23.318;2023-02-01T06:36:55;94693.25;;;1.64;74.85
59009;BME280;44794;42.652;23.318;2023-02-01T06:39:20;94681.81;;;1.72;75.07
59009;BME280;44794;42.652;23.318;2023-02-01T06:41:47;94685.94;;;1.76;74.52
59009;BME280;44794;42.652;23.318;2023-02-01T06:44:12;94692.59;;;1.80;73.53
59009;BME280;44794;42.652;23.318;2023-02-01T06:46:38;94694.06;;;1.86;73.12
59009;BME280;44794;42.652;23.318;2023-02-01T06:49:03;94710.41;;;1.83;72.45
59009;BME280;44794;42.652;23.318;2023-02-01T06:51:29;94710.31;;;1.85;72.58
59009;BME280;44794;42.652;23.318;2023-02-01T06:53:55;94716.50;;;1.79;71.73
59009;BME280;44794;42.652;23.318;2023-02-01T06:56:21;94712.94;;;1.83;72.16
59009;BME280;44794;42.652;23.318;2023-02-01T06:58:47;94714.63;;;1.84;72.10
59009;BME280;44794;42.652;23.318;2023-02-01T07:01:13;94725.44;;;1.91;71.86
59009;BME280;44794;42.652;23.318;2023-02-01T07:03:40;94716.88;;;1.92;71.29
59009;BME280;44794;42.652;23.318;2023-02-01T07:06:06;94724.47;;;1.93;71.75
59009;BME280;44794;42.652;23.318;2023-02-01T07:08:33;94744.00;;;1.96;71.50
59009;BME280;44794;42.652;23.318;2023-02-01T07:11:08;94741.59;;;1.93;71.23
59009;BME280;44794;42.652;23.318;2023-02-01T07:13:34;94743.66;;;2.05;71.18
59009;BME280;44794;42.652;23.318;2023-02-01T07:16:01;94741.09;;;2.05;70.90
59009;BME280;44794;42.652;23.318;2023-02-01T07:18:28;94736.84;;;2.05;70.66
59009;BME280;44794;42.652;23.318;2023-02-01T07:20:55;94745.44;;;2.03;70.36
59009;BME280;44794;42.652;23.318;2023-02-01T07:23:20;94743.56;;;2.08;70.54
59009;BME280;44794;42.652;23.318;2023-02-01T07:25:47;94749.50;;;2.08;70.69
59009;BME280;44794;42.652;23.318;2023-02-01T07:28:13;94750.69;;;2.21;70.26
59009;BME280;44794;42.652;23.318;2023-02-01T07:30:40;94747.66;;;2.33;69.71
59009;BME280;44794;42.652;23.318;2023-02-01T07:33:07;94746.69;;;2.35;69.19
59009;BME280;44794;42.652;23.318;2023-02-01T07:35:33;94746.50;;;2.40;69.07
59009;BME280;44794;42.652;23.318;2023-02-01T07:37:58;94754.56;;;2.31;68.46
59009;BME280;44794;42.652;23.318;2023-02-01T07:40:24;94754.13;;;2.41;68.86
59009;BME280;44794;42.652;23.318;2023-02-01T07:42:54;94755.41;;;2.51;68.60
59009;BME280;44794;42.652;23.318;2023-02-01T07:45:21;94759.25;;;2.41;67.82
59009;BME280;44794;42.652;23.318;2023-02-01T07:47:47;94768.44;;;2.47;67.62
59009;BME280;44794;42.652;23.318;2023-02-01T07:50:13;94765.59;;;2.53;67.27
59009;BME280;44794;42.652;23.318;2023-02-01T07:52:39;94771.38;;;2.58;67.17
59009;BME280;44794;42.652;23.318;2023-02-01T07:55:06;94775.59;;;2.59;66.57
59009;BME280;44794;42.652;23.318;2023-02-01T07:57:32;94777.31;;;2.58;66.86
59009;BME280;44794;42.652;23.318;2023-02-01T07:59:58;94780.59;;;2.62;66.84
59009;BME280;44794;42.652;23.318;2023-02-01T08:02:41;94781.63;;;2.58;66.17
59009;BME280;44794;42.652;23.318;2023-02-01T08:05:07;94782.22;;;2.64;66.03
59009;BME280;44794;42.652;23.318;2023-02-01T08:07:33;94777.56;;;2.52;66.17
59009;BME280;44794;42.652;23.318;2023-02-01T08:09:59;94789.84;;;2.66;66.18
59009;BME280;44794;42.652;23.318;2023-02-01T08:12:25;94777.47;;;2.75;65.95
59009;BME280;44794;42.652;23.318;2023-02-01T08:14:52;94791.06;;;2.77;64.98
59009;BME280;44794;42.652;23.318;2023-02-01T08:17:18;94778.38;;;2.74;65.08
59009;BME280;44794;42.652;23.318;2023-02-01T08:19:44;94792.22;;;2.70;64.67
59009;BME280;44794;42.652;23.318;2023-02-01T08:22:09;94781.28;;;2.87;65.01
59009;BME280;44794;42.652;23.318;2023-02-01T08:24:35;94772.78;;;3.04;64.13
59009;BME280;44794;42.652;23.318;2023-02-01T08:27:03;94785.94;;;3.17;64.19
59009;BME280;44794;42.652;23.318;2023-02-01T08:29:28;94787.59;;;3.38;63.63
59009;BME280;44794;42.652;23.318;2023-02-01T08:31:54;94785.84;;;3.38;62.99
59009;BME280;44794;42.652;23.318;2023-02-01T08:34:20;94786.56;;;3.22;63.26
59009;BME280;44794;42.652;23.318;2023-02-01T08:36:45;94787.09;;;3.10;62.99
59009;BME280;44794;42.652;23.318;2023-02-01T08:39:11;94789.22;;;3.20;63.98
59009;BME280;44794;42.652;23.318;2023-02-01T08:41:37;94787.16;;;3.28;63.62
59009;BME280;44794;42.652;23.318;2023-02-01T08:44:03;94787.19;;;3.47;63.39
59009;BME280;44794;42.652;23.318;2023-02-01T08:46:28;94768.19;;;3.69;63.40
59009;BME280;44794;42.652;23.318;2023-02-01T08:48:54;94782.50;;;3.74;61.22
59009;BME280;44794;42.652;23.318;2023-02-01T08:51:22;94786.25;;;3.68;61.36
59009;BME280;44794;42.652;23.318;2023-02-01T08:53:48;94777.97;;;3.79;61.07
59009;BME280;44794;42.652;23.318;2023-02-01T08:56:15;94772.56;;;3.85;59.99
59009;BME280;44794;42.652;23.318;2023-02-01T08:58:41;94786.22;;;4.04;60.32
59009;BME280;44794;42.652;23.318;2023-02-01T09:01:13;94780.25;;;4.22;59.41
59009;BME280;44794;42.652;23.318;2023-02-01T09:03:39;94782.47;;;4.11;58.91
59009;BME280;44794;42.652;23.318;2023-02-01T09:06:10;94790.88;;;4.15;58.69
59009;BME280;44794;42.652;23.318;2023-02-01T09:08:37;94794.56;;;3.91;59.16
59009;BME280;44794;42.652;23.318;2023-02-01T09:11:09;94790.53;;;3.85;59.81
59009;BME280;44794;42.652;23.318;2023-02-01T09:13:35;94795.75;;;4.02;59.15
59009;BME280;44794;42.652;23.318;2023-02-01T09:16:01;94800.69;;;4.07;59.14
59009;BME280;44794;42.652;23.318;2023-02-01T09:18:27;94776.31;;;4.32;59.12
59009;BME280;44794;42.652;23.318;2023-02-01T09:20:52;94791.84;;;4.66;57.89
59009;BME280;44794;42.652;23.318;2023-02-01T09:23:18;94788.81;;;4.92;58.01
59009;BME280;44794;42.652;23.318;2023-02-01T09:25:46;94796.16;;;4.99;56.68
59009;BME280;44794;42.652;23.318;2023-02-01T09:28:11;94792.38;;;5.06;56.34
59009;BME280;44794;42.652;23.318;2023-02-01T09:30:37;94800.00;;;4.74;56.16
59009;BME280;44794;42.652;23.318;2023-02-01T09:33:03;94793.81;;;4.78;56.33
59009;BME280;44794;42.652;23.318;2023-02-01T09:35:29;94780.13;;;4.94;57.00
59009;BME280;44794;42.652;23.318;2023-02-01T09:37:54;94773.81;;;5.17;56.65
59009;BME280;44794;42.652;23.318;2023-02-01T09:40:20;94782.63;;;5.13;55.84
59009;BME280;44794;42.652;23.318;2023-02-01T09:45:55;94773.31;;;4.93;56.46
59009;BME280;44794;42.652;23.318;2023-02-01T09:48:31;94766.72;;;5.05;56.24
59009;BME280;44794;42.652;23.318;2023-02-01T09:50:59;94752.50;;;5.15;55.27
59009;BME280;44794;42.652;23.318;2023-02-01T09:53:29;94759.13;;;5.02;54.38
59009;BME280;44794;42.652;23.318;2023-02-01T09:56:05;94748.06;;;5.17;55.04
59009;BME280;44794;42.652;23.318;2023-02-01T09:58:41;94741.75;;;5.07;54.31
59009;BME280;44794;42.652;23.318;2023-02-01T10:01:23;94740.78;;;5.24;54.39
59009;BME280;44794;42.652;23.318;2023-02-01T10:03:52;94731.53;;;5.37;54.28
59009;BME280;44794;42.652;23.318;2023-02-01T10:09:25;94759.69;;;5.08;53.39
59009;BME280;44794;42.652;23.318;2023-02-01T10:25:14;94716.88;;;4.73;55.28
59009;BME280;44794;42.652;23.318;2023-02-01T10:27:43;94706.66;;;4.55;54.97
59009;BME280;44794;42.652;23.318;2023-02-01T10:30:26;94716.19;;;4.70;54.97
59009;BME280;44794;42.652;23.318;2023-02-01T10:32:56;94704.09;;;4.72;55.25
59009;BME280;44794;42.652;23.318;2023-02-01T10:35:27;94696.44;;;4.87;55.99
59009;BME280;44794;42.652;23.318;2023-02-01T10:37:53;94700.22;;;4.97;54.51
59009;BME280;44794;42.652;23.318;2023-02-01T10:40:25;94695.44;;;4.90;54.34
59009;BME280;44794;42.652;23.318;2023-02-01T10:42:54;94707.06;;;4.97;54.77
59009;BME280;44794;42.652;23.318;2023-02-01T10:45:21;94691.19;;;4.89;54.03
59009;BME280;44794;42.652;23.318;2023-02-01T10:47:50;94670.56;;;4.90;54.95
59009;BME280;44794;42.652;23.318;2023-02-01T10:53:04;94692.88;;;4.90;54.75
59009;BME280;44794;42.652;23.318;2023-02-01T10:55:40;94691.22;;;4.72;54.81
59009;BME280;44794;42.652;23.318;2023-02-01T10:58:46;94686.06;;;4.55;55.24
59009;BME280;44794;42.652;23.318;2023-02-01T11:01:45;94683.44;;;4.73;55.89
59009;BME280;44794;42.652;23.318;2023-02-01T11:04:18;94690.72;;;4.98;54.70
59009;BME280;44794;42.652;23.318;2023-02-01T11:06:53;94683.47;;;5.06;53.74
59009;BME280;44794;42.652;23.318;2023-02-01T11:09:31;94680.91;;;5.21;52.96
59009;BME280;44794;42.652;23.318;2023-02-01T11:11:58;94682.69;;;5.36;53.17
59009;BME280;44794;42.652;23.318;2023-02-01T11:16:53;94688.59;;;5.38;52.79
59009;BME280;44794;42.652;23.318;2023-02-01T11:19:19;94678.88;;;5.27;53.00
59009;BME280;44794;42.652;23.318;2023-02-01T11:21:52;94685.06;;;5.23;53.19
59009;BME280;44794;42.652;23.318;2023-02-01T11:24:27;94673.97;;;5.38;53.72
59009;BME280;44794;42.652;23.318;2023-02-01T11:26:57;94659.50;;;5.20;53.96
59009;BME280;44794;42.652;23.318;2023-02-01T11:29:25;94659.22;;;5.10;54.12
59009;BME280;44794;42.652;23.318;2023-02-01T11:31:59;94644.84;;;5.06;53.66
59009;BME280;44794;42.652;23.318;2023-02-01T11:34:38;94646.13;;;5.14;54.13
59009;BME280;44794;42.652;23.318;2023-02-01T11:37:04;94658.75;;;5.18;53.63
59009;BME280;44794;42.652;23.318;2023-02-01T11:39:39;94660.41;;;5.19;54.39
59009;BME280;44794;42.652;23.318;2023-02-01T11:42:14;94679.44;;;5.17;53.78
59009;BME280;44794;42.652;23.318;2023-02-01T11:44:45;94649.53;;;5.15;53.82
59009;BME280;44794;42.652;23.318;2023-02-01T11:49:59;94653.59;;;5.18;54.03
59009;BME280;44794;42.652;23.318;2023-02-01T11:58:16;94645.53;;;5.09;53.51
59009;BME280;44794;42.652;23.318;2023-02-01T12:04:03;94642.50;;;5.33;53.60
59009;BME280;44794;42.652;23.318;2023-02-01T12:15:03;94629.19;;;5.25;53.64
59009;BME280;44794;42.652;23.318;2023-02-01T12:23:46;94620.25;;;5.32;54.62
59009;BME280;44794;42.652;23.318;2023-02-01T12:29:37;94632.06;;;5.36;54.50
59009;BME280;44794;42.652;23.318;2023-02-01T12:32:27;94624.25;;;5.38;54.05
59009;BME280;44794;42.652;23.318;2023-02-01T12:48:26;94638.75;;;5.70;52.64
59009;BME280;44794;42.652;23.318;2023-02-01T12:50:59;94638.41;;;5.77;52.51
59009;BME280;44794;42.652;23.318;2023-02-01T12:53:54;94628.22;;;5.90;51.87
59009;BME280;44794;42.652;23.318;2023-02-01T12:59:19;94626.91;;;5.98;51.11
59009;BME280;44794;42.652;23.318;2023-02-01T13:01:52;94633.44;;;6.19;51.52
59009;BME280;44794;42.652;23.318;2023-02-01T13:07:36;94627.66;;;5.69;51.91
59009;BME280;44794;42.652;23.318;2023-02-01T13:15:55;94621.66;;;5.69;52.20
59009;BME280;44794;42.652;23.318;2023-02-01T13:18:25;94627.38;;;5.58;51.21
59009;BME280;44794;42.652;23.318;2023-02-01T13:21:04;94623.66;;;5.79;51.97
59009;BME280;44794;42.652;23.318;2023-02-01T13:23:38;94621.44;;;5.89;51.14
59009;BME280;44794;42.652;23.318;2023-02-01T13:26:03;94624.84;;;5.89;50.74
59009;BME280;44794;42.652;23.318;2023-02-01T13:28:37;94619.94;;;5.85;50.27
59009;BME280;44794;42.652;23.318;2023-02-01T13:42:03;94631.88;;;5.55;50.51
59009;BME280;44794;42.652;23.318;2023-02-01T13:44:36;94635.78;;;5.46;50.59
59009;BME280;44794;42.652;23.318;2023-02-01T13:47:13;94626.56;;;5.42;50.41
59009;BME280;44794;42.652;23.318;2023-02-01T13:49:42;94632.78;;;5.38;50.08
59009;BME280;44794;42.652;23.318;2023-02-01T13:52:23;94633.53;;;5.40;49.54
59009;BME280;44794;42.652;23.318;2023-02-01T13:55:01;94626.13;;;5.65;49.14
59009;BME280;44794;42.652;23.318;2023-02-01T13:57:46;94640.84;;;5.94;48.96
59009;BME280;44794;42.652;23.318;2023-02-01T14:16:14;94630.31;;;5.83;50.17
59009;BME280;44794;42.652;23.318;2023-02-01T14:23:45;94604.97;;;5.91;49.63
59009;BME280;44794;42.652;23.318;2023-02-01T14:26:18;94605.88;;;5.90;49.69
59009;BME280;44794;42.652;23.318;2023-02-01T14:28:50;94608.06;;;5.82;49.73
59009;BME280;44794;42.652;23.318;2023-02-01T14:34:38;94602.63;;;5.56;50.56
59009;BME280;44794;42.652;23.318;2023-02-01T14:37:11;94581.22;;;5.40;50.80
59009;BME280;44794;42.652;23.318;2023-02-01T14:40:01;94590.09;;;5.34;50.98
59009;BME280;44794;42.652;23.318;2023-02-01T14:44:56;94598.78;;;5.17;52.23
59009;BME280;44794;42.652;23.318;2023-02-01T14:47:40;94605.59;;;5.18;52.50
59009;BME280;44794;42.652;23.318;2023-02-01T14:55:48;94625.31;;;5.02;52.92
59009;BME280;44794;42.652;23.318;2023-02-01T14:58:34;94634.94;;;4.98;52.96
59009;BME280;44794;42.652;23.318;2023-02-01T15:01:04;94637.78;;;4.94;53.13
59009;BME280;44794;42.652;23.318;2023-02-01T15:06:03;94629.31;;;4.92;53.66
59009;BME280;44794;42.652;23.318;2023-02-01T15:08:39;94619.38;;;4.84;53.53
59009;BME280;44794;42.652;23.318;2023-02-01T15:11:14;94623.94;;;4.79;53.51
59009;BME280;44794;42.652;23.318;2023-02-01T15:13:48;94611.19;;;4.78;53.79
59009;BME280;44794;42.652;23.318;2023-02-01T15:16:16;94613.16;;;4.73;53.72
59009;BME280;44794;42.652;23.318;2023-02-01T15:18:42;94613.66;;;4.79;54.08
59009;BME280;44794;42.652;23.318;2023-02-01T15:21:20;94613.66;;;4.79;53.85
59009;BME280;44794;42.652;23.318;2023-02-01T15:23:46;94608.38;;;4.82;54.07
59009;BME280;44794;42.652;23.318;2023-02-01T15:26:28;94602.03;;;4.72;53.09
59009;BME280;44794;42.652;23.318;2023-02-01T15:28:56;94599.53;;;4.71;53.06
59009;BME280;44794;42.652;23.318;2023-02-01T15:33:58;94585.69;;;4.73;53.14
59009;BME280;44794;42.652;23.318;2023-02-01T15:36:24;94576.53;;;4.68;53.47
59009;BME280;44794;42.652;23.318;2023-02-01T15:39:24;94585.34;;;4.64;52.69
59009;BME280;44794;42.652;23.318;2023-02-01T15:41:57;94590.47;;;4.64;52.90
59009;BME280;44794;42.652;23.318;2023-02-01T15:44:45;94576.09;;;4.60;53.62
59009;BME280;44794;42.652;23.318;2023-02-01T15:47:19;94592.69;;;4.54;53.03
59009;BME280;44794;42.652;23.318;2023-02-01T15:49:56;94592.53;;;4.57;53.28